Key West, FL

2:50 PM EDT on July 22, 2014 (GMT -0400)
Key West International (KEYW) Elev 0 ft | 24.56 °N, 81.75 °W | Change Station

Current weather conditions updated 57 minutes ago

Clear
Clear
85 °F
Feels Like 91 °F
N
4
Wind Variable Wind from NNW

Today is forecast to be Cooler than yesterday.

Today
High -- | Low -- °F
--% Chance of Precip.
Yesterday
High -- | Low -- °F
Precip. -- in
6:50 AM 8:16 PM
Waning Crescent, 15% visible
Pressure 30.05 in
Visibility 10.0 miles
Clouds Clear
Heat Index 91 °F
Dew Point 73 °F
Humidity 67%
Rainfall 0.02 in
Snow Depth Not available.
UV 16 out of 12
Pollen 2.90 out of 12
Air Quality Not available.
Flu Activity Sporadic
METAR KEYW 221753Z 34003KT 10SM CLR 29/23 A3005 RMK AO2 SLP175 60000 T02940228 10294 20261 58009 $

More Conditions Fewer Conditions

Pressure 30.05 in
Visibility 10.0 miles
Clouds Clear
Heat Index 91 °F
Dew Point 73 °F
Humidity 67%
Rainfall 0.02 in
Snow Depth Not available.
UV 16 out of 12
Pollen 2.90 out of 12
Air Quality Not available.
Flu Activity Sporadic
METAR KEYW 221753Z 34003KT 10SM CLR 29/23 A3005 RMK AO2 SLP175 60000 T02940228 10294 20261 58009 $

More Conditions Fewer Conditions

10-Day Weather Forecast

Almanac

Astronomy

Jul. 22, 2014 Rise Set
Actual Time 6:50 AM EDT 8:16 PM EDT
Civil Twilight 6:25 AM EDT 8:40 PM EDT
Nautical Twilight 5:56 AM EDT 9:10 PM EDT
Astronomical Twilight 5:25 AM EDT 9:41 PM EDT
Moon 3:18 AM EDT 4:55 PM EDT
Length of Visible Light 14h 15m
Length of Day
13h 25m
Tomorrow will be 0m 53s shorter.
Waning Crescent, 15% of the Moon is Illuminated
Today
Waning Crescent
Jul 26
New
Aug 3
First Quarter
Aug 10
Full
Aug 17
Last Quarter

Community

WunderPhotos

Upload Photos

1,736,322 photos uploaded!

Nearby

Snow Depth

Station Depth Elevation
No new snow has been reported.

Earthquake Activity

City Distance Mag. Time & Date
No recent earthquake activity has been reported nearby.
Minimum magnitude displayed is 2.5.

Coastal Water Temperatures

Place Temperature
No Stations Reporting

Nearby Weather Stations

Station Location Temp. Heat Index Dew Point Humidity Wind Precip. Elev Updated Type
Key West, FL 85.2 °F 93 °F 74 °F 69% East  at  0.0 mph 0.00 in / hr 6 ft 2:46 PM EDT Normal
Big Coppitt Key Gulfside, Key West, FL 87.4 °F 97 °F 75 °F 67% NNE  at  1.7 mph - / hr 31 ft 2:38 PM EDT Normal
MARITIME , Key West, FL 81 °F 79 °F - - ENE  at  3 mph 0.00 in / hr 0 ft 1:50 PM EDT MADIS
Cudjoe Key, FL 83.0 °F 92 °F 77 °F 81% ENE  at  1.0 mph 0.01 in / hr 16 ft 2:50 PM EDT Rapid Fire
Breezeswept Estates - Bird Lake - Ramrod, Ramrod Key, FL 83.7 °F 92 °F 76 °F 77% NE  at  3.7 mph 0.00 in / hr 25 ft 2:50 PM EDT Rapid Fire

Show More Stations Show Fewer Stations